sensor_id;sensor_type;location;lat;lon;timestamp;P1;durP1;ratioP1;P2;durP2;ratioP2
26864;SDS011;40618;51.166;10.322;2023-10-31T00:02:13;2.78;;;2.00;;
26864;SDS011;40618;51.166;10.322;2023-10-31T00:04:39;2.75;;;2.08;;
26864;SDS011;40618;51.166;10.322;2023-10-31T00:07:04;3.00;;;2.10;;
26864;SDS011;40618;51.166;10.322;2023-10-31T00:09:30;3.75;;;2.50;;
26864;SDS011;40618;51.166;10.322;2023-10-31T00:11:56;3.42;;;2.08;;
26864;SDS011;40618;51.166;10.322;2023-10-31T00:14:22;2.35;;;2.10;;
26864;SDS011;40618;51.166;10.322;2023-10-31T00:16:48;2.45;;;1.85;;
26864;SDS011;40618;51.166;10.322;2023-10-31T00:19:14;2.25;;;1.73;;
26864;SDS011;40618;51.166;10.322;2023-10-31T00:21:39;3.65;;;2.67;;
26864;SDS011;40618;51.166;10.322;2023-10-31T00:24:05;4.60;;;2.58;;
26864;SDS011;40618;51.166;10.322;2023-10-31T00:26:31;2.25;;;2.05;;
26864;SDS011;40618;51.166;10.322;2023-10-31T00:28:57;4.75;;;2.10;;
26864;SDS011;40618;51.166;10.322;2023-10-31T00:31:22;2.00;;;1.80;;
26864;SDS011;40618;51.166;10.322;2023-10-31T00:33:48;2.92;;;1.95;;
26864;SDS011;40618;51.166;10.322;2023-10-31T00:36:13;2.65;;;2.10;;
26864;SDS011;40618;51.166;10.322;2023-10-31T00:38:39;2.08;;;1.80;;
26864;SDS011;40618;51.166;10.322;2023-10-31T00:41:05;4.85;;;2.10;;
26864;SDS011;40618;51.166;10.322;2023-10-31T00:43:30;2.13;;;1.92;;
26864;SDS011;40618;51.166;10.322;2023-10-31T00:45:56;1.52;;;1.42;;
26864;SDS011;40618;51.166;10.322;2023-10-31T00:48:21;3.13;;;2.10;;
26864;SDS011;40618;51.166;10.322;2023-10-31T00:50:47;1.73;;;1.63;;
26864;SDS011;40618;51.166;10.322;2023-10-31T00:53:13;2.00;;;1.80;;
26864;SDS011;40618;51.166;10.322;2023-10-31T00:55:39;2.05;;;1.67;;
26864;SDS011;40618;51.166;10.322;2023-10-31T00:58:05;1.55;;;1.45;;
26864;SDS011;40618;51.166;10.322;2023-10-31T01:00:31;1.90;;;1.40;;
26864;SDS011;40618;51.166;10.322;2023-10-31T01:02:59;1.50;;;1.40;;
26864;SDS011;40618;51.166;10.322;2023-10-31T01:05:25;1.50;;;1.33;;
26864;SDS011;40618;51.166;10.322;2023-10-31T01:07:51;1.80;;;1.70;;
26864;SDS011;40618;51.166;10.322;2023-10-31T01:10:17;3.53;;;1.27;;
26864;SDS011;40618;51.166;10.322;2023-10-31T01:12:43;1.55;;;1.45;;
26864;SDS011;40618;51.166;10.322;2023-10-31T01:15:08;1.48;;;1.38;;
26864;SDS011;40618;51.166;10.322;2023-10-31T01:17:34;2.08;;;1.40;;
26864;SDS011;40618;51.166;10.322;2023-10-31T01:20:00;2.35;;;1.10;;
26864;SDS011;40618;51.166;10.322;2023-10-31T01:22:25;1.65;;;1.52;;
26864;SDS011;40618;51.166;10.322;2023-10-31T01:24:51;2.03;;;1.40;;
26864;SDS011;40618;51.166;10.322;2023-10-31T01:27:17;2.88;;;1.40;;
26864;SDS011;40618;51.166;10.322;2023-10-31T01:29:43;1.73;;;1.55;;
26864;SDS011;40618;51.166;10.322;2023-10-31T01:32:08;1.17;;;1.05;;
26864;SDS011;40618;51.166;10.322;2023-10-31T01:34:34;1.38;;;1.27;;
26864;SDS011;40618;51.166;10.322;2023-10-31T01:36:59;2.58;;;1.67;;
26864;SDS011;40618;51.166;10.322;2023-10-31T01:39:25;1.30;;;1.13;;
26864;SDS011;40618;51.166;10.322;2023-10-31T01:41:50;1.77;;;1.58;;
26864;SDS011;40618;51.166;10.322;2023-10-31T01:44:17;1.70;;;1.30;;
26864;SDS011;40618;51.166;10.322;2023-10-31T01:46:43;1.55;;;1.45;;
26864;SDS011;40618;51.166;10.322;2023-10-31T01:49:08;3.72;;;1.30;;
26864;SDS011;40618;51.166;10.322;2023-10-31T01:51:34;1.45;;;1.27;;
26864;SDS011;40618;51.166;10.322;2023-10-31T01:54:00;1.77;;;1.58;;
26864;SDS011;40618;51.166;10.322;2023-10-31T01:56:26;2.25;;;1.30;;
26864;SDS011;40618;51.166;10.322;2023-10-31T01:58:52;3.08;;;1.20;;
26864;SDS011;40618;51.166;10.322;2023-10-31T02:01:18;1.55;;;1.45;;
26864;SDS011;40618;51.166;10.322;2023-10-31T02:03:45;3.88;;;1.52;;
26864;SDS011;40618;51.166;10.322;2023-10-31T02:06:10;1.40;;;1.27;;
26864;SDS011;40618;51.166;10.322;2023-10-31T02:08:36;1.77;;;1.40;;
26864;SDS011;40618;51.166;10.322;2023-10-31T02:11:02;1.85;;;1.20;;
26864;SDS011;40618;51.166;10.322;2023-10-31T02:13:28;1.40;;;1.30;;
26864;SDS011;40618;51.166;10.322;2023-10-31T02:15:54;1.10;;;1.00;;
26864;SDS011;40618;51.166;10.322;2023-10-31T02:18:20;3.08;;;1.15;;
26864;SDS011;40618;51.166;10.322;2023-10-31T02:20:46;1.23;;;1.10;;
26864;SDS011;40618;51.166;10.322;2023-10-31T02:23:11;0.95;;;0.85;;
26864;SDS011;40618;51.166;10.322;2023-10-31T02:25:37;1.45;;;1.10;;
26864;SDS011;40618;51.166;10.322;2023-10-31T02:28:03;1.20;;;1.10;;
26864;SDS011;40618;51.166;10.322;2023-10-31T02:30:28;2.08;;;1.10;;
26864;SDS011;40618;51.166;10.322;2023-10-31T02:32:55;1.33;;;1.20;;
26864;SDS011;40618;51.166;10.322;2023-10-31T02:35:22;1.75;;;0.95;;
26864;SDS011;40618;51.166;10.322;2023-10-31T02:37:47;4.97;;;1.10;;
26864;SDS011;40618;51.166;10.322;2023-10-31T02:40:14;2.35;;;1.20;;
26864;SDS011;40618;51.166;10.322;2023-10-31T02:42:40;1.20;;;1.10;;
26864;SDS011;40618;51.166;10.322;2023-10-31T02:45:06;1.27;;;1.00;;
26864;SDS011;40618;51.166;10.322;2023-10-31T02:47:32;1.27;;;1.00;;
26864;SDS011;40618;51.166;10.322;2023-10-31T02:49:58;1.00;;;0.90;;
26864;SDS011;40618;51.166;10.322;2023-10-31T02:52:24;0.63;;;0.63;;
26864;SDS011;40618;51.166;10.322;2023-10-31T02:54:49;3.70;;;1.15;;
26864;SDS011;40618;51.166;10.322;2023-10-31T02:57:15;2.17;;;0.90;;
26864;SDS011;40618;51.166;10.322;2023-10-31T02:59:41;1.38;;;0.90;;
26864;SDS011;40618;51.166;10.322;2023-10-31T03:02:07;2.35;;;1.08;;
26864;SDS011;40618;51.166;10.322;2023-10-31T03:04:33;1.10;;;0.90;;
26864;SDS011;40618;51.166;10.322;2023-10-31T03:06:59;1.10;;;0.80;;
26864;SDS011;40618;51.166;10.322;2023-10-31T03:09:24;1.75;;;0.93;;
26864;SDS011;40618;51.166;10.322;2023-10-31T03:11:50;0.80;;;0.80;;
26864;SDS011;40618;51.166;10.322;2023-10-31T03:14:16;1.00;;;0.90;;
26864;SDS011;40618;51.166;10.322;2023-10-31T03:16:41;1.67;;;0.52;;
26864;SDS011;40618;51.166;10.322;2023-10-31T03:19:07;2.30;;;0.55;;
26864;SDS011;40618;51.166;10.322;2023-10-31T03:21:33;0.50;;;0.50;;
26864;SDS011;40618;51.166;10.322;2023-10-31T03:23:58;1.58;;;0.80;;
26864;SDS011;40618;51.166;10.322;2023-10-31T03:26:24;0.55;;;0.50;;
26864;SDS011;40618;51.166;10.322;2023-10-31T03:28:50;0.32;;;0.32;;
26864;SDS011;40618;51.166;10.322;2023-10-31T03:31:16;1.08;;;0.47;;
26864;SDS011;40618;51.166;10.322;2023-10-31T03:33:42;0.32;;;0.32;;
26864;SDS011;40618;51.166;10.322;2023-10-31T03:36:08;0.43;;;0.43;;
26864;SDS011;40618;51.166;10.322;2023-10-31T03:38:35;0.65;;;0.45;;
26864;SDS011;40618;51.166;10.322;2023-10-31T03:41:01;1.05;;;0.38;;
26864;SDS011;40618;51.166;10.322;2023-10-31T03:43:27;0.85;;;0.50;;
26864;SDS011;40618;51.166;10.322;2023-10-31T03:45:53;0.40;;;0.40;;
26864;SDS011;40618;51.166;10.322;2023-10-31T03:48:19;1.70;;;0.20;;
26864;SDS011;40618;51.166;10.322;2023-10-31T03:50:45;0.68;;;0.50;;
26864;SDS011;40618;51.166;10.322;2023-10-31T03:53:11;0.80;;;0.30;;
26864;SDS011;40618;51.166;10.322;2023-10-31T03:55:37;2.75;;;0.30;;
26864;SDS011;40618;51.166;10.322;2023-10-31T03:58:03;0.22;;;0.22;;
26864;SDS011;40618;51.166;10.322;2023-10-31T04:00:28;2.05;;;0.28;;
26864;SDS011;40618;51.166;10.322;2023-10-31T04:02:54;0.65;;;0.20;;
26864;SDS011;40618;51.166;10.322;2023-10-31T04:05:20;2.05;;;0.30;;
26864;SDS011;40618;51.166;10.322;2023-10-31T04:07:47;1.25;;;0.40;;
26864;SDS011;40618;51.166;10.322;2023-10-31T04:10:14;0.20;;;0.20;;
26864;SDS011;40618;51.166;10.322;2023-10-31T04:12:40;0.10;;;0.10;;
26864;SDS011;40618;51.166;10.322;2023-10-31T04:15:07;0.30;;;0.30;;
26864;SDS011;40618;51.166;10.322;2023-10-31T04:17:33;0.77;;;0.70;;
26864;SDS011;40618;51.166;10.322;2023-10-31T04:19:59;0.20;;;0.20;;
26864;SDS011;40618;51.166;10.322;2023-10-31T04:22:25;0.60;;;0.35;;
26864;SDS011;40618;51.166;10.322;2023-10-31T04:24:51;0.50;;;0.40;;
26864;SDS011;40618;51.166;10.322;2023-10-31T04:27:16;0.63;;;0.20;;
26864;SDS011;40618;51.166;10.322;2023-10-31T04:29:42;0.93;;;0.35;;
26864;SDS011;40618;51.166;10.322;2023-10-31T04:32:08;0.90;;;0.50;;
26864;SDS011;40618;51.166;10.322;2023-10-31T04:34:34;0.60;;;0.60;;
26864;SDS011;40618;51.166;10.322;2023-10-31T04:36:59;1.65;;;0.32;;
26864;SDS011;40618;51.166;10.322;2023-10-31T04:39:25;0.30;;;0.30;;
26864;SDS011;40618;51.166;10.322;2023-10-31T04:41:51;0.28;;;0.28;;
26864;SDS011;40618;51.166;10.322;2023-10-31T04:44:16;0.85;;;0.30;;
26864;SDS011;40618;51.166;10.322;2023-10-31T04:46:42;0.95;;;0.40;;
26864;SDS011;40618;51.166;10.322;2023-10-31T04:49:08;2.05;;;0.70;;
26864;SDS011;40618;51.166;10.322;2023-10-31T04:51:34;0.28;;;0.28;;
26864;SDS011;40618;51.166;10.322;2023-10-31T04:54:01;1.30;;;0.55;;
26864;SDS011;40618;51.166;10.322;2023-10-31T04:56:27;0.25;;;0.25;;
26864;SDS011;40618;51.166;10.322;2023-10-31T04:58:53;0.50;;;0.50;;
26864;SDS011;40618;51.166;10.322;2023-10-31T05:01:19;1.02;;;0.40;;
26864;SDS011;40618;51.166;10.322;2023-10-31T05:03:44;0.80;;;0.52;;
26864;SDS011;40618;51.166;10.322;2023-10-31T05:06:10;0.63;;;0.50;;
26864;SDS011;40618;51.166;10.322;2023-10-31T05:08:36;0.35;;;0.35;;
26864;SDS011;40618;51.166;10.322;2023-10-31T05:11:02;6.55;;;0.60;;
26864;SDS011;40618;51.166;10.322;2023-10-31T05:13:28;0.63;;;0.40;;
26864;SDS011;40618;51.166;10.322;2023-10-31T05:15:53;1.38;;;0.47;;
26864;SDS011;40618;51.166;10.322;2023-10-31T05:18:19;3.85;;;0.47;;
26864;SDS011;40618;51.166;10.322;2023-10-31T05:20:45;0.40;;;0.30;;
26864;SDS011;40618;51.166;10.322;2023-10-31T05:23:11;0.57;;;0.50;;
26864;SDS011;40618;51.166;10.322;2023-10-31T05:25:37;3.03;;;0.50;;
26864;SDS011;40618;51.166;10.322;2023-10-31T05:28:03;1.10;;;0.52;;
26864;SDS011;40618;51.166;10.322;2023-10-31T05:30:29;0.82;;;0.40;;
26864;SDS011;40618;51.166;10.322;2023-10-31T05:32:54;1.65;;;0.40;;
26864;SDS011;40618;51.166;10.322;2023-10-31T05:35:20;0.40;;;0.40;;
26864;SDS011;40618;51.166;10.322;2023-10-31T05:37:46;0.93;;;0.52;;
26864;SDS011;40618;51.166;10.322;2023-10-31T05:40:12;0.55;;;0.30;;
26864;SDS011;40618;51.166;10.322;2023-10-31T05:42:39;0.63;;;0.63;;
26864;SDS011;40618;51.166;10.322;2023-10-31T05:45:05;0.20;;;0.20;;
26864;SDS011;40618;51.166;10.322;2023-10-31T05:47:35;0.43;;;0.32;;
26864;SDS011;40618;51.166;10.322;2023-10-31T05:50:00;1.58;;;0.70;;
26864;SDS011;40618;51.166;10.322;2023-10-31T05:52:29;0.52;;;0.40;;
26864;SDS011;40618;51.166;10.322;2023-10-31T05:54:55;1.65;;;0.70;;
26864;SDS011;40618;51.166;10.322;2023-10-31T05:57:21;0.65;;;0.60;;
26864;SDS011;40618;51.166;10.322;2023-10-31T05:59:47;2.05;;;0.68;;
26864;SDS011;40618;51.166;10.322;2023-10-31T06:02:13;1.15;;;0.65;;
26864;SDS011;40618;51.166;10.322;2023-10-31T06:04:39;0.50;;;0.50;;
26864;SDS011;40618;51.166;10.322;2023-10-31T06:07:05;1.42;;;0.40;;
26864;SDS011;40618;51.166;10.322;2023-10-31T06:09:32;1.67;;;0.40;;
26864;SDS011;40618;51.166;10.322;2023-10-31T06:11:58;3.13;;;0.50;;
26864;SDS011;40618;51.166;10.322;2023-10-31T06:14:25;0.60;;;0.47;;
26864;SDS011;40618;51.166;10.322;2023-10-31T06:16:51;0.57;;;0.57;;
26864;SDS011;40618;51.166;10.322;2023-10-31T06:19:16;0.30;;;0.30;;
26864;SDS011;40618;51.166;10.322;2023-10-31T06:21:42;1.15;;;0.40;;
26864;SDS011;40618;51.166;10.322;2023-10-31T06:24:08;1.13;;;0.40;;
26864;SDS011;40618;51.166;10.322;2023-10-31T06:26:34;0.95;;;0.50;;
26864;SDS011;40618;51.166;10.322;2023-10-31T06:29:00;0.30;;;0.30;;
26864;SDS011;40618;51.166;10.322;2023-10-31T06:31:25;1.10;;;0.40;;
26864;SDS011;40618;51.166;10.322;2023-10-31T06:33:51;2.30;;;0.40;;
26864;SDS011;40618;51.166;10.322;2023-10-31T06:36:17;1.85;;;0.50;;
26864;SDS011;40618;51.166;10.322;2023-10-31T06:38:42;0.95;;;0.30;;
26864;SDS011;40618;51.166;10.322;2023-10-31T06:41:08;1.00;;;0.43;;
26864;SDS011;40618;51.166;10.322;2023-10-31T06:43:33;0.82;;;0.60;;
26864;SDS011;40618;51.166;10.322;2023-10-31T06:45:59;1.52;;;0.52;;
26864;SDS011;40618;51.166;10.322;2023-10-31T06:48:27;1.25;;;0.40;;
26864;SDS011;40618;51.166;10.322;2023-10-31T06:50:53;3.80;;;0.50;;
26864;SDS011;40618;51.166;10.322;2023-10-31T06:53:18;2.03;;;0.50;;
26864;SDS011;40618;51.166;10.322;2023-10-31T06:55:44;0.75;;;0.40;;
26864;SDS011;40618;51.166;10.322;2023-10-31T06:58:10;1.65;;;0.47;;
26864;SDS011;40618;51.166;10.322;2023-10-31T07:00:36;1.58;;;0.50;;
26864;SDS011;40618;51.166;10.322;2023-10-31T07:03:02;0.85;;;0.40;;
26864;SDS011;40618;51.166;10.322;2023-10-31T07:05:34;0.70;;;0.40;;
26864;SDS011;40618;51.166;10.322;2023-10-31T07:08:00;3.80;;;0.80;;
26864;SDS011;40618;51.166;10.322;2023-10-31T07:10:28;1.70;;;0.45;;
26864;SDS011;40618;51.166;10.322;2023-10-31T07:12:54;1.45;;;0.40;;
26864;SDS011;40618;51.166;10.322;2023-10-31T07:15:19;1.35;;;0.50;;
26864;SDS011;40618;51.166;10.322;2023-10-31T07:17:46;1.15;;;0.65;;
26864;SDS011;40618;51.166;10.322;2023-10-31T07:20:12;2.92;;;0.57;;
26864;SDS011;40618;51.166;10.322;2023-10-31T07:22:38;0.20;;;0.20;;
26864;SDS011;40618;51.166;10.322;2023-10-31T07:25:05;0.40;;;0.10;;
26864;SDS011;40618;51.166;10.322;2023-10-31T07:27:31;1.05;;;0.40;;
26864;SDS011;40618;51.166;10.322;2023-10-31T07:29:58;1.23;;;0.45;;
26864;SDS011;40618;51.166;10.322;2023-10-31T07:32:24;0.80;;;0.30;;
26864;SDS011;40618;51.166;10.322;2023-10-31T07:34:50;1.50;;;0.20;;
26864;SDS011;40618;51.166;10.322;2023-10-31T07:37:17;0.30;;;0.17;;
26864;SDS011;40618;51.166;10.322;2023-10-31T07:39:42;0.82;;;0.55;;
26864;SDS011;40618;51.166;10.322;2023-10-31T07:42:08;1.17;;;0.10;;
26864;SDS011;40618;51.166;10.322;2023-10-31T07:44:34;0.95;;;0.20;;
26864;SDS011;40618;51.166;10.322;2023-10-31T07:46:59;0.52;;;0.20;;
26864;SDS011;40618;51.166;10.322;2023-10-31T07:49:25;0.10;;;0.10;;
26864;SDS011;40618;51.166;10.322;2023-10-31T07:51:51;0.10;;;0.10;;
26864;SDS011;40618;51.166;10.322;2023-10-31T07:54:16;0.50;;;0.10;;
26864;SDS011;40618;51.166;10.322;2023-10-31T07:56:42;1.73;;;0.17;;
26864;SDS011;40618;51.166;10.322;2023-10-31T07:59:08;0.20;;;0.13;;
26864;SDS011;40618;51.166;10.322;2023-10-31T08:01:34;0.30;;;0.20;;
26864;SDS011;40618;51.166;10.322;2023-10-31T08:04:01;0.52;;;0.17;;
26864;SDS011;40618;51.166;10.322;2023-10-31T08:06:26;0.45;;;0.20;;
26864;SDS011;40618;51.166;10.322;2023-10-31T08:08:52;0.45;;;0.20;;
26864;SDS011;40618;51.166;10.322;2023-10-31T08:11:18;1.95;;;0.22;;
26864;SDS011;40618;51.166;10.322;2023-10-31T08:13:44;0.32;;;0.20;;
26864;SDS011;40618;51.166;10.322;2023-10-31T08:16:09;0.30;;;0.10;;
26864;SDS011;40618;51.166;10.322;2023-10-31T08:18:35;2.47;;;0.50;;
26864;SDS011;40618;51.166;10.322;2023-10-31T08:21:02;0.75;;;0.20;;
26864;SDS011;40618;51.166;10.322;2023-10-31T08:23:28;1.23;;;0.20;;
26864;SDS011;40618;51.166;10.322;2023-10-31T08:25:54;0.70;;;0.20;;
26864;SDS011;40618;51.166;10.322;2023-10-31T08:28:20;1.40;;;0.40;;
26864;SDS011;40618;51.166;10.322;2023-10-31T08:30:46;0.85;;;0.20;;
26864;SDS011;40618;51.166;10.322;2023-10-31T08:33:12;0.43;;;0.20;;
26864;SDS011;40618;51.166;10.322;2023-10-31T08:35:38;0.40;;;0.20;;
26864;SDS011;40618;51.166;10.322;2023-10-31T08:38:04;0.65;;;0.20;;
26864;SDS011;40618;51.166;10.322;2023-10-31T08:40:30;0.22;;;0.22;;
26864;SDS011;40618;51.166;10.322;2023-10-31T08:42:55;0.40;;;0.30;;
26864;SDS011;40618;51.166;10.322;2023-10-31T08:45:22;1.55;;;1.20;;
26864;SDS011;40618;51.166;10.322;2023-10-31T08:47:48;4.22;;;3.35;;
26864;SDS011;40618;51.166;10.322;2023-10-31T08:50:13;7.15;;;4.95;;
26864;SDS011;40618;51.166;10.322;2023-10-31T08:52:39;23.27;;;12.88;;
26864;SDS011;40618;51.166;10.322;2023-10-31T08:55:05;8.43;;;5.22;;
26864;SDS011;40618;51.166;10.322;2023-10-31T08:57:31;5.47;;;3.47;;
26864;SDS011;40618;51.166;10.322;2023-10-31T08:59:59;9.10;;;5.40;;
26864;SDS011;40618;51.166;10.322;2023-10-31T09:02:25;17.92;;;9.15;;
26864;SDS011;40618;51.166;10.322;2023-10-31T09:04:51;14.60;;;7.53;;
26864;SDS011;40618;51.166;10.322;2023-10-31T09:07:16;16.02;;;7.70;;
26864;SDS011;40618;51.166;10.322;2023-10-31T09:09:42;20.30;;;10.07;;
26864;SDS011;40618;51.166;10.322;2023-10-31T09:12:08;20.20;;;10.48;;
26864;SDS011;40618;51.166;10.322;2023-10-31T09:14:34;19.75;;;9.85;;
26864;SDS011;40618;51.166;10.322;2023-10-31T09:17:00;28.45;;;15.65;;
26864;SDS011;40618;51.166;10.322;2023-10-31T09:19:26;13.32;;;6.40;;
26864;SDS011;40618;51.166;10.322;2023-10-31T09:21:52;7.75;;;3.25;;
26864;SDS011;40618;51.166;10.322;2023-10-31T09:24:17;6.95;;;2.85;;
26864;SDS011;40618;51.166;10.322;2023-10-31T09:26:43;6.75;;;4.00;;
26864;SDS011;40618;51.166;10.322;2023-10-31T09:29:10;3.30;;;2.00;;
26864;SDS011;40618;51.166;10.322;2023-10-31T09:31:36;8.40;;;5.05;;
26864;SDS011;40618;51.166;10.322;2023-10-31T09:34:02;4.20;;;1.77;;
26864;SDS011;40618;51.166;10.322;2023-10-31T09:36:28;10.00;;;5.82;;
26864;SDS011;40618;51.166;10.322;2023-10-31T09:38:57;9.50;;;5.10;;
26864;SDS011;40618;51.166;10.322;2023-10-31T09:41:23;8.07;;;4.63;;
26864;SDS011;40618;51.166;10.322;2023-10-31T09:43:49;6.35;;;3.55;;
26864;SDS011;40618;51.166;10.322;2023-10-31T09:46:15;5.82;;;3.20;;
26864;SDS011;40618;51.166;10.322;2023-10-31T09:48:42;7.00;;;3.70;;
26864;SDS011;40618;51.166;10.322;2023-10-31T09:51:09;9.88;;;4.07;;
26864;SDS011;40618;51.166;10.322;2023-10-31T09:53:37;5.78;;;2.92;;
26864;SDS011;40618;51.166;10.322;2023-10-31T09:56:04;7.65;;;4.13;;
26864;SDS011;40618;51.166;10.322;2023-10-31T09:58:32;6.80;;;3.05;;
26864;SDS011;40618;51.166;10.322;2023-10-31T10:00:59;3.25;;;2.17;;
26864;SDS011;40618;51.166;10.322;2023-10-31T10:03:25;2.38;;;1.35;;
26864;SDS011;40618;51.166;10.322;2023-10-31T10:05:52;5.25;;;3.22;;
26864;SDS011;40618;51.166;10.322;2023-10-31T10:08:22;6.50;;;3.67;;
26864;SDS011;40618;51.166;10.322;2023-10-31T10:10:47;5.43;;;3.08;;
26864;SDS011;40618;51.166;10.322;2023-10-31T10:13:19;8.05;;;4.47;;
26864;SDS011;40618;51.166;10.322;2023-10-31T10:15:49;11.57;;;5.95;;
26864;SDS011;40618;51.166;10.322;2023-10-31T10:18:29;10.15;;;4.95;;
26864;SDS011;40618;51.166;10.322;2023-10-31T10:21:03;7.93;;;4.15;;
26864;SDS011;40618;51.166;10.322;2023-10-31T10:23:31;6.22;;;3.55;;
26864;SDS011;40618;51.166;10.322;2023-10-31T10:25:58;4.90;;;2.60;;
26864;SDS011;40618;51.166;10.322;2023-10-31T10:28:25;2.47;;;1.75;;
26864;SDS011;40618;51.166;10.322;2023-10-31T10:30:52;5.70;;;2.85;;
26864;SDS011;40618;51.166;10.322;2023-10-31T10:33:19;9.07;;;4.22;;
26864;SDS011;40618;51.166;10.322;2023-10-31T10:35:46;3.08;;;1.70;;
26864;SDS011;40618;51.166;10.322;2023-10-31T10:38:13;3.38;;;2.05;;
26864;SDS011;40618;51.166;10.322;2023-10-31T10:40:41;3.00;;;2.00;;
26864;SDS011;40618;51.166;10.322;2023-10-31T10:43:24;2.38;;;1.55;;
26864;SDS011;40618;51.166;10.322;2023-10-31T10:45:56;4.63;;;3.13;;
26864;SDS011;40618;51.166;10.322;2023-10-31T10:48:27;8.50;;;4.43;;
26864;SDS011;40618;51.166;10.322;2023-10-31T10:51:00;5.07;;;3.00;;
26864;SDS011;40618;51.166;10.322;2023-10-31T10:53:48;5.13;;;2.65;;
26864;SDS011;40618;51.166;10.322;2023-10-31T10:56:29;2.13;;;1.23;;
26864;SDS011;40618;51.166;10.322;2023-10-31T10:59:04;3.03;;;1.55;;
26864;SDS011;40618;51.166;10.322;2023-10-31T11:01:43;1.65;;;1.20;;
26864;SDS011;40618;51.166;10.322;2023-10-31T11:04:14;1.77;;;1.17;;
26864;SDS011;40618;51.166;10.322;2023-10-31T11:06:42;3.17;;;1.23;;
26864;SDS011;40618;51.166;10.322;2023-10-31T11:09:09;1.55;;;1.23;;
26864;SDS011;40618;51.166;10.322;2023-10-31T11:11:39;1.13;;;0.93;;
26864;SDS011;40618;51.166;10.322;2023-10-31T11:14:05;2.47;;;0.82;;
26864;SDS011;40618;51.166;10.322;2023-10-31T11:16:39;1.05;;;0.90;;
26864;SDS011;40618;51.166;10.322;2023-10-31T11:19:10;1.52;;;0.88;;
26864;SDS011;40618;51.166;10.322;2023-10-31T11:21:37;1.05;;;0.85;;
26864;SDS011;40618;51.166;10.322;2023-10-31T11:24:20;0.65;;;0.55;;
26864;SDS011;40618;51.166;10.322;2023-10-31T11:26:50;1.25;;;0.80;;
26864;SDS011;40618;51.166;10.322;2023-10-31T11:29:17;1.27;;;0.90;;
26864;SDS011;40618;51.166;10.322;2023-10-31T11:31:43;0.63;;;0.63;;
26864;SDS011;40618;51.166;10.322;2023-10-31T11:34:09;0.95;;;0.80;;
26864;SDS011;40618;51.166;10.322;2023-10-31T11:36:37;2.10;;;1.05;;
26864;SDS011;40618;51.166;10.322;2023-10-31T11:39:10;0.77;;;0.68;;
26864;SDS011;40618;51.166;10.322;2023-10-31T11:41:40;1.77;;;0.70;;
26864;SDS011;40618;51.166;10.322;2023-10-31T11:44:14;3.42;;;0.80;;
26864;SDS011;40618;51.166;10.322;2023-10-31T11:46:41;1.35;;;0.70;;
26864;SDS011;40618;51.166;10.322;2023-10-31T11:49:07;1.08;;;0.70;;
26864;SDS011;40618;51.166;10.322;2023-10-31T11:51:32;2.83;;;0.70;;
26864;SDS011;40618;51.166;10.322;2023-10-31T11:53:59;2.83;;;0.57;;
26864;SDS011;40618;51.166;10.322;2023-10-31T11:56:27;0.68;;;0.68;;
26864;SDS011;40618;51.166;10.322;2023-10-31T12:01:27;0.60;;;0.40;;
26864;SDS011;40618;51.166;10.322;2023-10-31T12:03:53;0.95;;;0.85;;
26864;SDS011;40618;51.166;10.322;2023-10-31T12:06:19;0.50;;;0.50;;
26864;SDS011;40618;51.166;10.322;2023-10-31T12:08:46;1.08;;;0.70;;
26864;SDS011;40618;51.166;10.322;2023-10-31T12:11:17;1.27;;;0.63;;
26864;SDS011;40618;51.166;10.322;2023-10-31T12:13:58;8.07;;;0.98;;
26864;SDS011;40618;51.166;10.322;2023-10-31T12:16:27;7.10;;;1.10;;
26864;SDS011;40618;51.166;10.322;2023-10-31T12:18:59;0.88;;;0.82;;
26864;SDS011;40618;51.166;10.322;2023-10-31T12:24:13;0.57;;;0.50;;
26864;SDS011;40618;51.166;10.322;2023-10-31T12:26:41;1.40;;;0.70;;
26864;SDS011;40618;51.166;10.322;2023-10-31T12:31:46;2.38;;;0.85;;
26864;SDS011;40618;51.166;10.322;2023-10-31T12:34:19;0.60;;;0.60;;
26864;SDS011;40618;51.166;10.322;2023-10-31T12:36:49;1.92;;;0.95;;
26864;SDS011;40618;51.166;10.322;2023-10-31T12:39:18;1.50;;;0.80;;
26864;SDS011;40618;51.166;10.322;2023-10-31T12:41:53;1.35;;;0.90;;
26864;SDS011;40618;51.166;10.322;2023-10-31T12:44:23;0.73;;;0.60;;
26864;SDS011;40618;51.166;10.322;2023-10-31T12:46:51;0.80;;;0.70;;
26864;SDS011;40618;51.166;10.322;2023-10-31T12:49:18;1.02;;;0.70;;
26864;SDS011;40618;51.166;10.322;2023-10-31T12:51:54;1.60;;;1.30;;
26864;SDS011;40618;51.166;10.322;2023-10-31T12:54:29;1.33;;;1.08;;
26864;SDS011;40618;51.166;10.322;2023-10-31T12:57:06;0.88;;;0.70;;
26864;SDS011;40618;51.166;10.322;2023-10-31T12:59:34;1.85;;;1.38;;
26864;SDS011;40618;51.166;10.322;2023-10-31T13:02:02;1.07;;;0.93;;
26864;SDS011;40618;51.166;10.322;2023-10-31T13:04:32;1.63;;;1.10;;
26864;SDS011;40618;51.166;10.322;2023-10-31T13:06:59;0.90;;;0.90;;
26864;SDS011;40618;51.166;10.322;2023-10-31T13:09:34;1.98;;;1.20;;
26864;SDS011;40618;51.166;10.322;2023-10-31T13:12:04;0.85;;;0.85;;
26864;SDS011;40618;51.166;10.322;2023-10-31T13:14:31;1.52;;;1.10;;
26864;SDS011;40618;51.166;10.322;2023-10-31T13:16:58;1.35;;;1.00;;
26864;SDS011;40618;51.166;10.322;2023-10-31T13:19:25;2.60;;;1.67;;
26864;SDS011;40618;51.166;10.322;2023-10-31T13:21:51;3.13;;;1.08;;
26864;SDS011;40618;51.166;10.322;2023-10-31T13:24:16;1.25;;;1.15;;
26864;SDS011;40618;51.166;10.322;2023-10-31T13:26:43;1.45;;;0.75;;
26864;SDS011;40618;51.166;10.322;2023-10-31T13:29:09;2.55;;;1.40;;
26864;SDS011;40618;51.166;10.322;2023-10-31T13:31:36;3.67;;;1.70;;
26864;SDS011;40618;51.166;10.322;2023-10-31T13:34:03;3.00;;;2.00;;
26864;SDS011;40618;51.166;10.322;2023-10-31T13:36:29;4.00;;;1.95;;
26864;SDS011;40618;51.166;10.322;2023-10-31T13:38:54;3.10;;;1.92;;
26864;SDS011;40618;51.166;10.322;2023-10-31T13:48:58;4.40;;;1.95;;
26864;SDS011;40618;51.166;10.322;2023-10-31T13:51:24;4.32;;;1.98;;
26864;SDS011;40618;51.166;10.322;2023-10-31T13:53:49;2.75;;;1.33;;
26864;SDS011;40618;51.166;10.322;2023-10-31T13:56:15;3.15;;;2.03;;
26864;SDS011;40618;51.166;10.322;2023-10-31T13:58:42;3.25;;;1.80;;
26864;SDS011;40618;51.166;10.322;2023-10-31T14:01:07;5.57;;;2.70;;
26864;SDS011;40618;51.166;10.322;2023-10-31T14:03:33;4.75;;;2.65;;
26864;SDS011;40618;51.166;10.322;2023-10-31T14:05:59;2.92;;;1.92;;
26864;SDS011;40618;51.166;10.322;2023-10-31T14:08:24;4.80;;;2.67;;
26864;SDS011;40618;51.166;10.322;2023-10-31T14:10:50;2.58;;;1.40;;
26864;SDS011;40618;51.166;10.322;2023-10-31T14:13:16;1.95;;;1.17;;
26864;SDS011;40618;51.166;10.322;2023-10-31T14:15:42;2.13;;;1.27;;
26864;SDS011;40618;51.166;10.322;2023-10-31T14:18:07;5.28;;;1.88;;
26864;SDS011;40618;51.166;10.322;2023-10-31T14:20:33;2.92;;;1.63;;
26864;SDS011;40618;51.166;10.322;2023-10-31T14:22:59;3.33;;;1.23;;
26864;SDS011;40618;51.166;10.322;2023-10-31T14:25:24;1.38;;;1.02;;
26864;SDS011;40618;51.166;10.322;2023-10-31T14:27:50;2.90;;;1.60;;
26864;SDS011;40618;51.166;10.322;2023-10-31T14:30:15;2.65;;;1.60;;
26864;SDS011;40618;51.166;10.322;2023-10-31T14:32:41;2.08;;;1.58;;
26864;SDS011;40618;51.166;10.322;2023-10-31T14:35:07;3.67;;;1.70;;
26864;SDS011;40618;51.166;10.322;2023-10-31T14:37:33;2.08;;;1.20;;
26864;SDS011;40618;51.166;10.322;2023-10-31T14:40:00;1.83;;;1.00;;
26864;SDS011;40618;51.166;10.322;2023-10-31T14:42:28;3.83;;;1.20;;
26864;SDS011;40618;51.166;10.322;2023-10-31T14:44:54;1.50;;;1.00;;
26864;SDS011;40618;51.166;10.322;2023-10-31T14:47:22;1.40;;;1.00;;